KJAXKEYW

Guest
Details From KJAX - Jacksonville Intl
To KEYW - Key West Intl
Flight Number -
Tags Decoded
Created
Modified
Stats Distance 355 nm / 657 km
Max Altitude 0 ft / 0 m
Waypoints 2
Social Downloads 1
Likes 0
Share VATSIM

Download

Looking for another format? Having issues loading an existing format? Contact us
Advertisement - Login to hide

Notes

Decoded

Route

KJAX EYW

ID Type Via Altitude Latitude Longitude Leg Dist Tot Dist Heading (true) Name
O KJAX APT - 0 ft / 0 m 30.49216˚ -81.70084˚ - 0 nm - -
O EYW VOR - 0 ft / 0 m 24.58589˚ -81.80047˚ 354 nm 354 nm 181° / 181° KEY WEST VORTAC

Altitude Profile

Advertisement - Login to hide

Weather


0- 5 10 15 20 25 30 35+ Temperature / ° C

Clouds and Precipitation
Forecast for 2018-05-25 12:00 UTC. Updated 4 hours ago

Ground ~20,000 ft ~40,000 ft Winds

KJAX

Details ICAO KJAX (JAX)
Name Jacksonville Intl
Region United States
Timezone America/New_York (UTC-4.0)
Stats Elevation 30 ft / 9 m (AMSL)
Location 30.493037° -81.688273°
Runways 2
Magnetic Variation 6.503° W

METAR

KJAX 251456Z 14008KT 10SM SCT026 BKN250 28/22 A3006 RMK AO2 SLP179 T02830217 50001

Decode

TAF

KJAX 251435Z 2515/2612 15006KT P6SM SCT015 BKN035 TEMPO 2515/2517 5SM -SHRA BKN015 FM251800 12010KT P6SM VCTS SCT025CB BKN040 FM252200 14008KT P6SM SCT030 BKN100

Decode

Departure Runways

ID Width Length Bearing (true) Bearing (mag) Surface Threshold Offset Overrun Length
08 151 ft / 46 m 9,989 ft / 3,045 m 70.45° 76.95° Concrete 0 ft / 0 m 400 ft / 122 m
14 151 ft / 46 m 7,703 ft / 2,348 m 130.70° 137.20° Concrete 0 ft / 0 m 200 ft / 61 m
26 151 ft / 46 m 9,989 ft / 3,045 m 250.47° 256.97° Concrete 0 ft / 0 m 400 ft / 122 m
32 151 ft / 46 m 7,703 ft / 2,348 m 310.70° 317.20° Concrete 0 ft / 0 m 200 ft / 61 m

KEYW

Details ICAO KEYW (EYW)
Name Key West Intl
Region United States
Timezone America/New_York (UTC-4.0)
Stats Elevation 2 ft / 1 m (AMSL)
Location 24.556124° -81.759546°
Runways 1
Magnetic Variation 5.593° W

METAR

KEYW 251453Z 02003KT 2SM +RA BR BKN037 OVC050 22/22 A3002 RMK AO2 SLP164 P0110 60164 T02220222 51016

Decode

TAF

KEYW 251458Z 2515/2612 09011KT P6SM -RA SCT020 BKN040 OVC070 TEMPO 2515/2518 VRB05KT 2SM +SHRA BR BKN015 BKN025 FM252000 10012G18KT P6SM -RA SCT015 SCT030 OVC060 TEMPO 2520/2524 12016G26KT 3SM +TSRA BR BKN015CB OVC030 FM260600 13011G20KT 4SM -RA OVC015 PROB30 2606/2607 4SM -TSRA BKN015CB

Decode

Destination Runways

ID Width Length Bearing (true) Bearing (mag) Surface Threshold Offset Overrun Length
09 100 ft / 30 m 4,794 ft / 1,461 m 89.38° 94.97° Asphalt 151 ft / 46 m 0 ft / 0 m
27 100 ft / 30 m 4,794 ft / 1,461 m 269.39° 274.98° Asphalt 151 ft / 46 m 0 ft / 0 m

Popular Alternatives